createdAt,value
2018-11-10T00:00:10.114Z,10.80
2018-11-10T00:02:43.018Z,10.37
2018-11-10T00:05:14.739Z,11.60
2018-11-10T00:07:53.820Z,10.27
2018-11-10T00:10:25.386Z,10.10
2018-11-10T00:13:00.719Z,10.27
2018-11-10T00:15:34.130Z,10.70
2018-11-10T00:18:05.686Z,9.90
2018-11-10T00:20:38.199Z,9.87
2018-11-10T00:23:09.939Z,9.40
2018-11-10T00:25:41.038Z,10.40
2018-11-10T00:28:12.588Z,10.53
2018-11-10T00:30:47.448Z,9.37
2018-11-10T00:33:19.445Z,10.20
2018-11-10T00:35:51.998Z,10.63
2018-11-10T00:38:26.467Z,9.30
2018-11-10T00:41:01.884Z,9.90
2018-11-10T00:43:32.954Z,9.73
2018-11-10T00:46:06.457Z,9.43
2018-11-10T00:48:39.540Z,9.33
2018-11-10T00:51:23.871Z,9.67
2018-11-10T00:54:01.117Z,10.93
2018-11-10T00:56:32.836Z,10.20
2018-11-10T00:59:05.843Z,10.03
2018-11-10T01:01:40.391Z,10.40
2018-11-10T01:04:09.565Z,9.97
2018-11-10T01:06:43.341Z,11.07
2018-11-10T01:09:14.759Z,10.27
2018-11-10T01:11:47.842Z,10.20
2018-11-10T01:14:20.334Z,10.70
2018-11-10T01:16:51.884Z,10.67
2018-11-10T01:19:24.109Z,10.77
2018-11-10T01:22:02.384Z,10.30
2018-11-10T01:24:33.498Z,11.13
2018-11-10T01:27:12.691Z,11.23
2018-11-10T01:29:43.922Z,11.33
2018-11-10T01:32:18.795Z,10.30
2018-11-10T01:34:50.042Z,10.90
2018-11-10T01:37:24.627Z,10.50
2018-11-10T01:39:58.419Z,10.67
2018-11-10T01:42:32.076Z,9.83
2018-11-10T01:45:06.453Z,11.60
2018-11-10T01:47:41.738Z,10.50
2018-11-10T01:50:14.704Z,10.53
2018-11-10T01:52:47.577Z,11.27
2018-11-10T01:55:18.630Z,10.00
2018-11-10T01:57:49.735Z,10.53
2018-11-10T02:00:32.829Z,10.60
2018-11-10T02:03:04.053Z,10.33
2018-11-10T02:05:56.340Z,10.73
2018-11-10T02:08:28.006Z,10.80
2018-11-10T02:10:59.290Z,11.00
2018-11-10T02:13:30.590Z,10.47
2018-11-10T02:16:01.847Z,9.93
2018-11-10T02:18:33.429Z,10.17
2018-11-10T02:21:04.758Z,9.70
2018-11-10T02:23:36.013Z,10.53
2018-11-10T02:26:07.332Z,10.47
2018-11-10T02:28:38.541Z,8.73
2018-11-10T02:31:09.771Z,9.50
2018-11-10T02:33:41.416Z,8.70
2018-11-10T02:36:14.918Z,9.47
2018-11-10T02:38:46.319Z,9.37
2018-11-10T02:41:20.573Z,9.90
2018-11-10T02:43:53.298Z,8.47
2018-11-10T02:46:25.777Z,9.00
2018-11-10T02:48:58.100Z,9.13
2018-11-10T02:51:29.185Z,9.57
2018-11-10T02:54:05.324Z,7.93
2018-11-10T02:56:42.198Z,7.00
2018-11-10T02:59:16.112Z,8.77
2018-11-10T03:01:49.214Z,6.37
2018-11-10T03:04:23.752Z,7.80
2018-11-10T03:06:54.818Z,6.50
2018-11-10T03:09:26.425Z,7.27
2018-11-10T03:11:57.538Z,6.33
2018-11-10T03:14:31.054Z,6.13
2018-11-10T03:17:02.857Z,6.57
2018-11-10T03:19:36.299Z,5.43
2018-11-10T03:22:08.708Z,4.90
2018-11-10T03:24:41.908Z,5.70
2018-11-10T03:27:14.072Z,5.90
2018-11-10T03:29:46.771Z,4.40
2018-11-10T03:32:19.026Z,4.70
2018-11-10T03:34:51.594Z,4.73
2018-11-10T03:37:24.175Z,5.70
2018-11-10T03:39:56.579Z,5.13
2018-11-10T03:42:29.051Z,5.57
2018-11-10T03:45:01.919Z,4.43
2018-11-10T03:47:32.882Z,4.90
2018-11-10T03:50:04.888Z,4.13
2018-11-10T03:52:40.176Z,5.30
2018-11-10T03:55:14.703Z,5.37
2018-11-10T03:57:48.327Z,4.77
2018-11-10T04:00:24.709Z,4.70
2018-11-10T04:02:57.849Z,5.00
2018-11-10T04:05:30.899Z,4.57
2018-11-10T04:08:03.588Z,4.90
2018-11-10T04:10:36.081Z,4.70
2018-11-10T04:13:09.022Z,4.17
2018-11-10T04:15:41.289Z,4.40
2018-11-10T04:18:14.554Z,4.73
2018-11-10T04:20:47.188Z,4.77
2018-11-10T04:23:20.168Z,4.17
2018-11-10T04:25:53.708Z,4.17
2018-11-10T04:28:27.379Z,4.43
2018-11-10T04:30:58.513Z,3.73
2018-11-10T04:33:30.706Z,3.50
2018-11-10T04:36:03.268Z,4.23
2018-11-10T04:38:37.790Z,3.43
2018-11-10T04:41:12.480Z,3.93
2018-11-10T04:43:46.415Z,3.30
2018-11-10T04:46:18.158Z,3.00
2018-11-10T04:48:49.212Z,3.67
2018-11-10T04:51:20.613Z,3.00
2018-11-10T04:53:56.855Z,3.10
2018-11-10T04:56:27.908Z,3.20
2018-11-10T04:59:05.435Z,3.23
2018-11-10T05:01:40.792Z,2.73
2018-11-10T05:04:15.396Z,3.37
2018-11-10T05:06:49.678Z,2.80
2018-11-10T05:09:20.769Z,2.70
2018-11-10T05:11:51.942Z,2.37
2018-11-10T05:14:27.768Z,2.87
2018-11-10T05:17:06.552Z,3.27
2018-11-10T05:19:42.021Z,2.57
2018-11-10T05:22:14.783Z,2.70
2018-11-10T05:24:47.822Z,2.43
2018-11-10T05:27:19.928Z,3.03
2018-11-10T05:29:51.792Z,3.20
2018-11-10T05:32:23.505Z,3.23
2018-11-10T05:34:57.771Z,2.73
2018-11-10T05:37:32.047Z,2.73
2018-11-10T05:40:02.909Z,2.77
2018-11-10T05:42:33.971Z,2.80
2018-11-10T05:45:09.840Z,3.30
2018-11-10T05:47:43.341Z,3.40
2018-11-10T05:50:21.966Z,3.80
2018-11-10T05:52:53.249Z,3.07
2018-11-10T05:55:26.066Z,2.97
2018-11-10T05:57:57.129Z,3.23
2018-11-10T06:00:32.130Z,3.37
2018-11-10T06:03:07.738Z,3.37
2018-11-10T06:05:44.169Z,3.13
2018-11-10T06:08:17.901Z,3.00
2018-11-10T06:10:51.974Z,2.87
2018-11-10T06:13:22.987Z,3.07
2018-11-10T06:15:58.843Z,3.30
2018-11-10T06:18:34.612Z,3.37
2018-11-10T06:21:05.573Z,3.17
2018-11-10T06:23:38.165Z,4.20
2018-11-10T06:26:10.818Z,3.70
2018-11-10T06:28:46.536Z,3.47
2018-11-10T06:31:22.892Z,3.10
2018-11-10T06:34:01.891Z,3.73
2018-11-10T06:36:38.411Z,3.83
2018-11-10T06:39:15.718Z,3.67
2018-11-10T06:41:47.528Z,3.60
2018-11-10T06:44:22.841Z,3.63
2018-11-10T06:46:54.016Z,3.23
2018-11-10T06:52:03.095Z,3.20
2018-11-10T06:54:34.778Z,3.80
2018-11-10T06:57:15.030Z,3.73
2018-11-10T06:59:46.170Z,3.40
2018-11-10T07:02:23.537Z,3.40
2018-11-10T07:04:59.479Z,3.70
2018-11-10T07:07:31.469Z,3.73
2018-11-10T07:10:03.386Z,3.83
2018-11-10T07:12:36.056Z,3.90
2018-11-10T07:15:09.680Z,3.70
2018-11-10T07:17:40.756Z,3.73
2018-11-10T07:20:12.209Z,3.77
2018-11-10T07:22:43.372Z,4.43
2018-11-10T07:25:14.491Z,3.87
2018-11-10T07:27:49.319Z,3.43
2018-11-10T07:30:21.521Z,3.80
2018-11-10T07:32:55.335Z,3.57
2018-11-10T07:35:30.406Z,3.97
2018-11-10T07:38:01.488Z,3.67
2018-11-10T07:40:37.227Z,3.97
2018-11-10T07:43:09.079Z,4.00
2018-11-10T07:45:40.770Z,3.87
2018-11-10T07:48:15.505Z,3.90
2018-11-10T07:50:51.145Z,3.47
2018-11-10T07:53:23.193Z,3.63
2018-11-10T07:55:58.360Z,4.23
2018-11-10T07:58:32.283Z,3.60
2018-11-10T08:01:03.352Z,4.60
2018-11-10T08:03:43.273Z,4.00
2018-11-10T08:06:19.895Z,4.07
2018-11-10T08:08:58.207Z,4.10
2018-11-10T08:11:29.850Z,4.13
2018-11-10T08:14:03.959Z,3.60
2018-11-10T08:16:35.020Z,3.77
2018-11-10T08:19:09.687Z,4.00
2018-11-10T08:21:40.971Z,4.33
2018-11-10T08:24:15.481Z,4.43
2018-11-10T08:26:52.563Z,4.27
2018-11-10T08:29:25.223Z,4.23
2018-11-10T08:31:57.113Z,3.77
2018-11-10T08:34:30.709Z,3.33
2018-11-10T08:37:00.189Z,4.67
2018-11-10T08:39:31.254Z,4.43
2018-11-10T08:42:06.694Z,4.10
2018-11-10T08:44:43.310Z,4.37
2018-11-10T08:47:16.175Z,4.23
2018-11-10T08:49:52.645Z,4.03
2018-11-10T08:52:28.565Z,4.80
2018-11-10T08:55:04.490Z,4.50
2018-11-10T08:57:41.973Z,4.10
2018-11-10T09:00:13.730Z,3.93
2018-11-10T09:02:44.824Z,3.50
2018-11-10T09:05:24.358Z,3.43
2018-11-10T09:07:55.993Z,3.80
2018-11-10T09:10:34.288Z,4.33
2018-11-10T09:13:06.119Z,3.60
2018-11-10T09:15:37.867Z,3.93
2018-11-10T09:18:13.583Z,3.07
2018-11-10T09:20:45.411Z,3.87
2018-11-10T09:23:31.548Z,4.60
2018-11-10T09:26:12.120Z,4.00
2018-11-10T09:29:03.770Z,4.50
2018-11-10T09:32:00.981Z,4.07
2018-11-10T09:34:33.046Z,13.70
2018-11-10T09:37:07.168Z,17.57
2018-11-10T09:39:39.467Z,4.67
2018-11-10T09:42:11.438Z,3.67
2018-11-10T09:44:57.311Z,17.77
2018-11-10T09:47:28.319Z,5.30
2018-11-10T09:49:59.466Z,11.37
2018-11-10T09:52:38.465Z,7.63
2018-11-10T09:59:55.850Z,3.37
2018-11-10T10:03:05.823Z,3.47
2018-11-10T10:05:52.872Z,3.60
2018-11-10T10:08:34.631Z,3.90
2018-11-10T10:11:07.157Z,3.33
2018-11-10T10:13:42.229Z,3.23
2018-11-10T10:16:22.992Z,3.33
2018-11-10T10:18:59.205Z,3.93
2018-11-10T10:21:48.676Z,3.50
2018-11-10T10:24:41.490Z,3.63
2018-11-10T10:27:42.675Z,3.13
2018-11-10T10:30:27.090Z,3.67
2018-11-10T10:33:04.132Z,3.73
2018-11-10T10:35:44.410Z,4.00
2018-11-10T10:38:18.043Z,3.57
2018-11-10T10:40:54.491Z,3.40
2018-11-10T10:43:29.348Z,3.70
2018-11-10T10:46:09.586Z,3.30
2018-11-10T10:48:42.216Z,3.50
2018-11-10T10:51:25.400Z,3.37
2018-11-10T10:54:07.273Z,3.97
2018-11-10T10:56:46.914Z,3.47
2018-11-10T10:59:19.381Z,2.83
2018-11-10T11:02:08.918Z,3.57
2018-11-10T11:04:57.133Z,3.70
2018-11-10T11:07:29.050Z,3.50
2018-11-10T11:10:00.454Z,3.70
2018-11-10T11:12:34.504Z,3.37
2018-11-10T11:15:13.348Z,2.97
2018-11-10T11:17:45.443Z,3.73
2018-11-10T11:20:23.021Z,3.80
2018-11-10T11:22:55.944Z,3.57
2018-11-10T11:25:33.145Z,3.33
2018-11-10T11:28:05.407Z,3.10
2018-11-10T11:30:46.082Z,4.23
2018-11-10T11:33:18.048Z,4.13
2018-11-10T11:35:51.439Z,3.80
2018-11-10T11:38:23.405Z,3.97
2018-11-10T11:40:55.394Z,3.77
2018-11-10T11:43:27.777Z,3.17
2018-11-10T11:45:59.898Z,3.47
2018-11-10T11:48:32.260Z,3.93
2018-11-10T11:51:08.564Z,3.50
2018-11-10T11:53:47.528Z,3.53
2018-11-10T11:56:20.868Z,3.10
2018-11-10T11:58:54.956Z,3.80
2018-11-10T12:01:26.379Z,3.67
2018-11-10T12:04:16.484Z,3.07
2018-11-10T12:06:48.126Z,3.40
2018-11-10T12:09:22.025Z,4.10
2018-11-10T12:11:57.768Z,3.47
2018-11-10T12:14:30.056Z,3.00
2018-11-10T12:17:05.568Z,3.67
2018-11-10T12:19:37.706Z,3.30
2018-11-10T12:22:10.119Z,3.10
2018-11-10T12:24:41.132Z,3.43
2018-11-10T12:27:17.720Z,3.67
2018-11-10T12:29:51.925Z,3.33
2018-11-10T12:32:27.684Z,3.77
2018-11-10T12:35:07.304Z,3.87
2018-11-10T12:37:39.364Z,3.50
2018-11-10T12:40:14.157Z,3.50
2018-11-10T12:42:49.357Z,4.33
2018-11-10T12:45:24.262Z,3.93
2018-11-10T12:47:55.360Z,3.70
2018-11-10T12:50:33.450Z,3.93
2018-11-10T12:53:04.570Z,3.57
2018-11-10T12:55:35.769Z,3.73
2018-11-10T12:58:11.879Z,3.47
2018-11-10T13:00:43.395Z,3.90
2018-11-10T13:03:15.181Z,3.07
2018-11-10T13:05:50.346Z,3.40
2018-11-10T13:08:26.410Z,3.30
2018-11-10T13:10:57.709Z,3.23
2018-11-10T13:13:30.701Z,2.90
2018-11-10T13:16:01.792Z,2.40
2018-11-10T13:18:33.047Z,2.73
2018-11-10T13:21:04.217Z,3.13
2018-11-10T13:23:35.998Z,2.83
2018-11-10T13:26:09.527Z,3.30
2018-11-10T13:28:42.504Z,2.73
2018-11-10T13:31:14.055Z,2.90
2018-11-10T13:33:54.857Z,3.10
2018-11-10T13:36:34.214Z,3.50
2018-11-10T13:39:06.828Z,2.87
2018-11-10T13:41:44.067Z,3.80
2018-11-10T13:44:20.733Z,2.60
2018-11-10T13:46:54.891Z,3.30
2018-11-10T13:49:27.488Z,3.00
2018-11-10T13:52:00.739Z,3.10
2018-11-10T13:54:36.084Z,3.60
2018-11-10T13:57:22.234Z,3.43
2018-11-10T13:59:57.435Z,3.03
2018-11-10T14:02:28.657Z,3.47
2018-11-10T14:05:02.317Z,3.33
2018-11-10T14:07:37.748Z,3.10
2018-11-10T14:10:17.571Z,2.87
2018-11-10T14:12:49.547Z,2.97
2018-11-10T14:15:20.788Z,3.50
2018-11-10T14:17:55.623Z,3.37
2018-11-10T14:20:32.019Z,3.73
2018-11-10T14:23:05.164Z,3.70
2018-11-10T14:25:41.400Z,3.23
2018-11-10T14:28:12.474Z,3.63
2018-11-10T14:30:50.454Z,3.87
2018-11-10T14:33:29.402Z,2.73
2018-11-10T14:36:01.000Z,3.70
2018-11-10T14:38:32.519Z,3.00
2018-11-10T14:41:06.268Z,3.60
2018-11-10T14:43:38.517Z,2.80
2018-11-10T14:46:11.707Z,2.83
2018-11-10T14:48:45.203Z,3.00
2018-11-10T14:51:18.566Z,3.07
2018-11-10T14:53:49.606Z,3.00
2018-11-10T14:56:22.038Z,3.03
2018-11-10T14:58:53.460Z,2.60
2018-11-10T15:01:26.530Z,2.73
2018-11-10T15:04:01.635Z,2.87
2018-11-10T15:06:36.553Z,2.57
2018-11-10T15:09:09.993Z,3.30
2018-11-10T15:11:41.235Z,3.30
2018-11-10T15:14:12.907Z,3.00
2018-11-10T15:16:43.953Z,2.70
2018-11-10T15:19:18.461Z,2.73
2018-11-10T15:21:49.512Z,2.77
2018-11-10T15:24:24.022Z,2.90
2018-11-10T15:26:55.129Z,2.97
2018-11-10T15:29:28.088Z,2.83
2018-11-10T15:32:04.634Z,2.37
2018-11-10T15:34:36.611Z,2.60
2018-11-10T15:37:10.086Z,2.20
2018-11-10T15:39:50.921Z,2.90
2018-11-10T15:42:25.951Z,2.80
2018-11-10T15:45:00.142Z,2.70
2018-11-10T15:47:32.067Z,2.40
2018-11-10T15:50:03.642Z,2.67
2018-11-10T15:52:36.364Z,2.80
2018-11-10T15:55:09.343Z,2.47
2018-11-10T15:57:44.479Z,2.87
2018-11-10T16:00:16.777Z,2.50
2018-11-10T16:02:49.141Z,2.37
2018-11-10T16:05:24.887Z,2.90
2018-11-10T16:07:56.345Z,2.40
2018-11-10T16:10:27.754Z,2.30
2018-11-10T16:13:09.858Z,2.77
2018-11-10T16:15:43.584Z,2.33
2018-11-10T16:18:16.348Z,2.60
2018-11-10T16:20:51.425Z,2.73
2018-11-10T16:23:23.389Z,2.30
2018-11-10T16:25:57.087Z,2.30
2018-11-10T16:28:30.175Z,2.83
2018-11-10T16:31:02.156Z,2.60
2018-11-10T16:33:34.402Z,2.60
2018-11-10T16:36:08.360Z,2.43
2018-11-10T16:38:42.419Z,2.60
2018-11-10T16:41:20.273Z,2.33
2018-11-10T16:43:55.629Z,2.47
2018-11-10T16:46:26.591Z,2.20
2018-11-10T16:48:57.952Z,2.33
2018-11-10T16:51:30.481Z,1.90
2018-11-10T16:54:05.951Z,2.30
2018-11-10T16:56:36.313Z,2.33
2018-11-10T16:59:14.266Z,2.60
2018-11-10T17:01:51.420Z,2.67
2018-11-10T17:04:27.479Z,2.10
2018-11-10T17:07:01.952Z,2.53
2018-11-10T17:09:33.293Z,1.73
2018-11-10T17:12:04.976Z,1.97
2018-11-10T17:14:37.436Z,2.10
2018-11-10T17:17:08.915Z,2.50
2018-11-10T17:19:42.184Z,2.17
2018-11-10T17:22:13.369Z,2.10
2018-11-10T17:24:46.025Z,2.27
2018-11-10T17:27:19.580Z,2.00
2018-11-10T17:29:53.335Z,2.23
2018-11-10T17:32:28.002Z,1.83
2018-11-10T17:34:59.395Z,1.77
2018-11-10T17:37:32.855Z,1.50
2018-11-10T17:40:06.321Z,2.03
2018-11-10T17:42:39.418Z,1.70
2018-11-10T17:45:16.634Z,2.00
2018-11-10T17:47:49.174Z,1.70
2018-11-10T17:50:22.858Z,1.80
2018-11-10T17:52:55.723Z,2.37
2018-11-10T17:55:30.340Z,2.10
2018-11-10T17:58:01.737Z,2.13
2018-11-10T18:00:33.094Z,1.90
2018-11-10T18:03:04.677Z,2.30
2018-11-10T18:05:35.763Z,1.37
2018-11-10T18:08:12.185Z,1.87
2018-11-10T18:10:47.168Z,1.60
2018-11-10T18:13:25.905Z,2.00
2018-11-10T18:15:56.982Z,1.80
2018-11-10T18:18:28.103Z,1.73
2018-11-10T18:21:02.628Z,1.90
2018-11-10T18:23:34.006Z,1.43
2018-11-10T18:26:05.380Z,1.82
2018-11-10T18:28:41.158Z,1.60
2018-11-10T18:31:15.280Z,1.70
2018-11-10T18:33:47.746Z,1.73
2018-11-10T18:36:18.928Z,1.60
2018-11-10T18:38:49.947Z,1.63
2018-11-10T18:41:25.329Z,1.70
2018-11-10T18:43:57.024Z,1.90
2018-11-10T18:46:28.811Z,1.63
2018-11-10T18:49:07.247Z,1.67
2018-11-10T18:51:42.108Z,1.80
2018-11-10T18:54:16.173Z,1.73
2018-11-10T18:56:51.689Z,1.80
2018-11-10T18:59:28.825Z,1.50
2018-11-10T19:02:01.161Z,1.67
2018-11-10T19:04:41.908Z,1.30
2018-11-10T19:07:14.714Z,1.83
2018-11-10T19:09:47.807Z,1.47
2018-11-10T19:12:19.948Z,1.70
2018-11-10T19:14:52.474Z,1.80
2018-11-10T19:17:24.721Z,1.80
2018-11-10T19:19:57.720Z,2.23
2018-11-10T19:22:30.538Z,1.83
2018-11-10T19:25:03.517Z,1.60
2018-11-10T19:27:36.497Z,1.40
2018-11-10T19:30:17.235Z,1.50
2018-11-10T19:32:49.289Z,1.77
2018-11-10T19:35:20.720Z,1.80
2018-11-10T19:37:52.234Z,1.70
2018-11-10T19:40:23.422Z,1.87
2018-11-10T19:42:54.735Z,1.70
2018-11-10T19:45:26.347Z,2.23
2018-11-10T19:47:57.416Z,2.20
2018-11-10T19:50:29.048Z,1.60
2018-11-10T19:53:00.180Z,1.90
2018-11-10T19:55:37.343Z,2.43
2018-11-10T19:58:08.653Z,2.33
2018-11-10T20:00:43.392Z,3.00
2018-11-10T20:03:15.912Z,2.00
2018-11-10T20:05:46.954Z,2.17
2018-11-10T20:08:22.479Z,2.30
2018-11-10T20:10:56.946Z,1.83
2018-11-10T20:13:32.764Z,2.33
2018-11-10T20:16:17.839Z,2.30
2018-11-10T20:18:56.051Z,2.40
2018-11-10T20:21:28.408Z,2.43
2018-11-10T20:24:01.952Z,2.50
2018-11-10T20:26:34.694Z,2.50
2018-11-10T20:29:07.442Z,3.40
2018-11-10T20:31:40.243Z,2.60
2018-11-10T20:34:13.197Z,2.57
2018-11-10T20:36:45.715Z,2.07
2018-11-10T20:39:18.239Z,2.50
2018-11-10T20:41:53.873Z,2.73
2018-11-10T20:44:26.470Z,2.43
2018-11-10T20:46:57.794Z,2.43
2018-11-10T20:49:36.119Z,2.50
2018-11-10T20:52:09.970Z,2.10
2018-11-10T20:54:41.457Z,2.40
2018-11-10T20:57:18.120Z,2.00
2018-11-10T20:59:51.848Z,2.30
2018-11-10T21:02:26.144Z,2.27
2018-11-10T21:05:06.881Z,2.30
2018-11-10T21:07:39.809Z,2.07
2018-11-10T21:10:19.136Z,2.00
2018-11-10T21:12:53.314Z,2.13
2018-11-10T21:15:29.706Z,1.93
2018-11-10T21:18:06.850Z,2.20
2018-11-10T21:20:40.896Z,2.00
2018-11-10T21:23:15.069Z,2.40
2018-11-10T21:25:51.927Z,2.27
2018-11-10T21:28:24.207Z,2.33
2018-11-10T21:30:57.915Z,2.87
2018-11-10T21:33:30.663Z,2.60
2018-11-10T21:36:03.478Z,3.27
2018-11-10T21:38:37.461Z,2.67
2018-11-10T21:41:13.280Z,2.60
2018-11-10T21:43:46.651Z,2.40
2018-11-10T21:46:21.634Z,2.50
2018-11-10T21:48:53.280Z,2.10
2018-11-10T21:51:29.398Z,2.10
2018-11-10T21:54:04.874Z,2.20
2018-11-10T21:56:41.369Z,2.80
2018-11-10T21:59:14.223Z,1.93
2018-11-10T22:01:46.889Z,2.80
2018-11-10T22:04:20.061Z,2.43
2018-11-10T22:06:51.264Z,2.23
2018-11-10T22:09:27.059Z,2.40
2018-11-10T22:11:58.079Z,2.17
2018-11-10T22:14:30.681Z,2.40
2018-11-10T22:17:02.568Z,2.20
2018-11-10T22:19:42.187Z,2.00
2018-11-10T22:22:13.345Z,2.60
2018-11-10T22:24:49.441Z,1.60
2018-11-10T22:27:20.742Z,1.37
2018-11-10T22:29:53.349Z,1.73
2018-11-10T22:32:25.799Z,1.57
2018-11-10T22:34:59.184Z,1.60
2018-11-10T22:37:31.797Z,1.13
2018-11-10T22:40:04.307Z,1.00
2018-11-10T22:42:37.779Z,1.20
2018-11-10T22:45:13.731Z,1.20
2018-11-10T22:47:50.612Z,1.13
2018-11-10T22:50:23.110Z,1.40
2018-11-10T22:53:00.479Z,1.33
2018-11-10T22:55:38.247Z,1.77
2018-11-10T22:58:17.934Z,1.47
2018-11-10T23:01:11.143Z,1.47
2018-11-10T23:03:47.342Z,1.50
2018-11-10T23:06:20.830Z,1.50
2018-11-10T23:08:54.480Z,1.67
2018-11-10T23:11:26.166Z,1.47
2018-11-10T23:14:03.517Z,1.17
2018-11-10T23:16:39.733Z,1.50
2018-11-10T23:19:18.320Z,1.33
2018-11-10T23:21:49.372Z,1.73
2018-11-10T23:24:21.701Z,1.40
2018-11-10T23:26:55.426Z,1.40
2018-11-10T23:29:31.767Z,1.20
2018-11-10T23:32:02.817Z,1.43
2018-11-10T23:34:36.109Z,1.13
2018-11-10T23:37:10.670Z,1.30
2018-11-10T23:39:45.147Z,1.00
2018-11-10T23:42:16.702Z,1.00
2018-11-10T23:45:08.670Z,1.17
2018-11-10T23:47:40.117Z,1.30
2018-11-10T23:50:15.822Z,1.00
2018-11-10T23:52:47.800Z,1.00
2018-11-10T23:55:19.072Z,1.07
2018-11-10T23:57:52.959Z,1.20
